Time;durP1;ratioP1;P1;durP2;ratioP2;P2;SDS_P1;SDS_P2;PMS_P1;PMS_P2;Temp;Humidity;BMP_temperature;BMP_pressure;BME280_temperature;BME280_humidity;BME280_pressure;Samples;Min_cycle;Max_cycle;Signal;HPM_P1;HPM_P2
2023/11/09 00:01:14;;;;;;;2.80;2.40;;;;;;;21.45;59.07;97878.64;105990;1251;72134;-46
2023/11/09 00:03:41;;;;;;;2.90;2.60;;;;;;;21.45;59.05;97879.73;105961;1251;60463;-46
2023/11/09 00:06:10;;;;;;;2.50;2.20;;;;;;;21.45;58.97;97875.30;105950;1251;60434;-46
2023/11/09 00:08:42;;;;;;;2.50;2.20;;;;;;;21.45;58.76;97871.86;105973;1251;73769;-46
2023/11/09 00:11:09;;;;;;;2.50;2.10;;;;;;;21.44;58.86;97871.99;105922;1255;65362;-46
2023/11/09 00:13:37;;;;;;;2.60;2.00;;;;;;;21.44;58.92;97872.53;106014;1251;72600;-46
2023/11/09 00:16:05;;;;;;;2.90;2.10;;;;;;;21.43;58.86;97869.88;106026;1256;60517;-46
2023/11/09 00:18:32;;;;;;;2.60;2.40;;;;;;;21.42;58.93;97868.48;105935;1256;60310;-46
2023/11/09 00:20:59;;;;;;;2.60;2.20;;;;;;;21.44;58.90;97869.36;105966;1256;73757;-46
2023/11/09 00:23:27;;;;;;;2.20;2.00;;;;;;;21.43;58.83;97866.92;105770;1256;65020;-46
2023/11/09 00:25:54;;;;;;;2.70;2.30;;;;;;;21.42;58.84;97867.63;105697;1256;72578;-48
2023/11/09 00:28:21;;;;;;;2.30;2.10;;;;;;;21.42;58.79;97866.28;105605;1256;60540;-47
2023/11/09 00:30:49;;;;;;;2.60;2.40;;;;;;;21.42;59.00;97869.39;105799;1251;60441;-46
2023/11/09 00:33:16;;;;;;;2.50;2.30;;;;;;;21.42;58.91;97871.19;105866;1257;73878;-46
2023/11/09 00:35:46;;;;;;;2.40;2.20;;;;;;;21.42;58.81;97871.88;105925;1256;65828;-46
2023/11/09 00:38:15;;;;;;;2.50;2.30;;;;;;;21.42;58.84;97875.07;105848;1254;72671;-46
2023/11/09 00:40:42;;;;;;;2.30;2.10;;;;;;;21.41;58.93;97873.82;105831;1256;60508;-46
2023/11/09 00:43:10;;;;;;;2.40;2.00;;;;;;;21.41;58.81;97873.27;105945;1254;60446;-46
2023/11/09 00:45:37;;;;;;;2.30;2.10;;;;;;;21.41;58.78;97876.46;106030;1255;73615;-47
2023/11/09 00:48:05;;;;;;;2.40;2.10;;;;;;;21.40;58.75;97878.64;105923;1255;66302;-46
2023/11/09 00:50:32;;;;;;;2.60;2.40;;;;;;;21.41;58.75;97881.98;106192;1254;72453;-46
2023/11/09 00:53:00;;;;;;;2.50;2.20;;;;;;;21.40;58.85;97884.79;105832;1257;60532;-46
2023/11/09 00:55:27;;;;;;;2.40;2.20;;;;;;;21.40;58.85;97878.33;105757;1256;60441;-46
2023/11/09 00:57:55;;;;;;;2.20;2.00;;;;;;;21.40;58.71;97876.29;105656;1255;73482;-46
2023/11/09 01:00:23;;;;;;;2.60;2.30;;;;;;;21.39;58.84;97876.67;106247;1255;66206;-47
2023/11/09 01:02:51;;;;;;;2.50;2.30;;;;;;;21.40;58.59;97878.63;105691;1254;72338;-47
2023/11/09 01:05:18;;;;;;;3.10;2.20;;;;;;;21.40;58.83;97883.38;105621;1251;60644;-46
2023/11/09 01:07:50;;;;;;;2.40;2.20;;;;;;;21.40;58.73;97882.66;105650;1254;60436;-47
2023/11/09 01:10:17;;;;;;;2.50;2.20;;;;;;;21.39;58.66;97885.30;106370;1254;73688;-46
2023/11/09 01:12:47;;;;;;;2.50;2.20;;;;;;;21.39;58.75;97883.60;105667;1256;66178;-47
2023/11/09 01:15:14;;;;;;;2.30;2.10;;;;;;;21.40;58.77;97886.02;105625;1254;72560;-47
2023/11/09 01:17:58;;;;;;;2.10;1.90;;;;;;;21.39;58.68;97885.23;105791;1257;61095;-46
2023/11/09 01:20:26;;;;;;;2.50;2.20;;;;;;;21.39;58.75;97882.73;106062;1256;60358;-47
2023/11/09 01:22:53;;;;;;;2.30;2.10;;;;;;;21.39;58.78;97883.96;105960;1256;73557;-47
2023/11/09 01:25:20;;;;;;;2.40;2.20;;;;;;;21.39;58.75;97881.88;106359;1256;65415;-47
2023/11/09 01:27:48;;;;;;;2.40;2.20;;;;;;;21.39;58.75;97884.44;106010;1254;72565;-47
2023/11/09 01:30:15;;;;;;;2.10;1.90;;;;;;;21.39;58.76;97887.88;105842;1257;60546;-47
2023/11/09 01:32:43;;;;;;;2.40;2.10;;;;;;;21.39;58.62;97885.54;105772;1251;60415;-47
2023/11/09 01:35:10;;;;;;;2.60;2.20;;;;;;;21.39;58.73;97880.85;105629;1252;73573;-47
2023/11/09 01:37:38;;;;;;;2.20;2.00;;;;;;;21.39;58.62;97882.27;105792;1255;65499;-47
2023/11/09 01:40:09;;;;;;;2.00;1.90;;;;;;;21.39;58.59;97887.55;105801;1257;72622;-47
2023/11/09 01:42:36;;;;;;;2.40;2.20;;;;;;;21.38;58.70;97886.00;106038;1256;60434;-47
2023/11/09 01:45:05;;;;;;;2.30;2.10;;;;;;;21.38;58.69;97882.48;105912;1254;60434;-47
2023/11/09 01:47:35;;;;;;;2.40;2.20;;;;;;;21.39;58.60;97886.31;105940;1256;73538;-47
2023/11/09 01:50:02;;;;;;;2.20;2.00;;;;;;;21.38;58.62;97886.39;105835;1253;65043;-47
2023/11/09 01:52:30;;;;;;;2.90;2.10;;;;;;;21.38;58.48;97887.39;105976;1251;72597;-46
2023/11/09 01:54:57;;;;;;;2.20;2.00;;;;;;;21.38;58.56;97894.48;105795;1259;60594;-46
2023/11/09 01:57:24;;;;;;;2.10;1.90;;;;;;;21.37;58.64;97890.10;105724;1254;60564;-46
2023/11/09 01:59:52;;;;;;;4.80;1.90;;;;;;;21.37;58.68;97890.64;105669;1256;74318;-47
2023/11/09 02:02:19;;;;;;;2.20;2.00;;;;;;;21.37;58.63;97889.30;105668;1259;66142;-46
2023/11/09 02:04:46;;;;;;;2.30;2.10;;;;;;;21.37;58.59;97894.77;105668;1256;72933;-46
2023/11/09 02:07:16;;;;;;;2.40;2.00;;;;;;;21.37;58.55;97891.65;105897;1257;60600;-46
2023/11/09 02:09:44;;;;;;;3.40;2.10;;;;;;;21.37;58.53;97894.14;105907;1251;60421;-46
2023/11/09 02:12:12;;;;;;;2.30;2.10;;;;;;;21.37;58.53;97891.09;105654;1252;73813;-47
2023/11/09 02:14:40;;;;;;;2.10;1.90;;;;;;;21.36;58.53;97895.04;105894;1255;66147;-46
2023/11/09 02:17:08;;;;;;;2.50;2.00;;;;;;;21.36;58.62;97893.11;105595;1257;71095;-46
2023/11/09 02:19:36;;;;;;;2.60;2.10;;;;;;;21.36;58.47;97894.19;105624;1256;60559;-47
2023/11/09 02:22:03;;;;;;;2.50;2.20;;;;;;;21.36;58.57;97896.30;105547;1256;60511;-46
2023/11/09 02:24:31;;;;;;;2.30;2.10;;;;;;;21.36;58.42;97897.08;105678;1254;73574;-48
2023/11/09 02:26:59;;;;;;;2.90;2.40;;;;;;;21.36;58.50;97899.40;109071;1251;66093;-46
2023/11/09 02:29:32;;;;;;;2.20;2.00;;;;;;;21.36;58.47;97899.17;109419;1256;70169;-46
2023/11/09 02:32:00;;;;;;;2.30;2.10;;;;;;;21.36;58.48;97897.08;109336;1254;59204;-47
2023/11/09 02:34:29;;;;;;;2.90;2.00;;;;;;;21.37;58.43;97899.59;105735;1257;60581;-47
2023/11/09 02:36:57;;;;;;;2.20;2.00;;;;;;;21.38;58.36;97904.20;106029;1257;73601;-46
2023/11/09 02:39:24;;;;;;;2.40;2.00;;;;;;;21.38;58.29;97900.55;105968;1256;65785;-46
2023/11/09 02:41:52;;;;;;;1.80;1.70;;;;;;;21.39;58.34;97905.00;105951;1257;73094;-46
2023/11/09 02:44:19;;;;;;;2.40;2.10;;;;;;;21.39;58.52;97912.08;105961;1257;60536;-46
2023/11/09 02:46:46;;;;;;;2.20;2.00;;;;;;;21.40;58.38;97911.79;105938;1251;60369;-46
2023/11/09 02:49:13;;;;;;;2.40;2.20;;;;;;;21.40;58.20;97915.83;105660;1256;73551;-46
2023/11/09 02:51:41;;;;;;;2.30;1.90;;;;;;;21.39;58.28;97917.92;105883;1256;66298;-46
2023/11/09 02:54:09;;;;;;;2.60;2.00;;;;;;;21.40;58.33;97918.08;105861;1254;72132;-46
2023/11/09 02:56:37;;;;;;;2.10;1.90;;;;;;;21.39;58.31;97923.92;105994;1256;60467;-46
2023/11/09 02:59:04;;;;;;;2.40;2.10;;;;;;;21.39;58.31;97922.89;105884;1254;60546;-46
2023/11/09 03:01:31;;;;;;;2.50;1.80;;;;;;;21.38;58.31;97922.73;105974;1256;71949;-46
2023/11/09 03:03:59;;;;;;;2.10;1.90;;;;;;;21.38;58.16;97923.13;105896;1256;65858;-46
2023/11/09 03:06:27;;;;;;;2.30;2.00;;;;;;;21.39;58.25;97928.10;105684;1265;72324;-48
2023/11/09 03:08:55;;;;;;;2.60;2.10;;;;;;;21.38;58.23;97924.28;105610;1256;60562;-48
2023/11/09 03:11:22;;;;;;;2.20;2.00;;;;;;;21.38;58.31;97926.53;105810;1257;60405;-46
2023/11/09 03:13:50;;;;;;;4.30;2.10;;;;;;;21.38;58.44;97932.77;105890;1254;74200;-48
2023/11/09 03:16:21;;;;;;;3.70;2.10;;;;;;;21.37;58.15;97932.92;106013;1256;65386;-48
2023/11/09 03:18:49;;;;;;;2.40;2.00;;;;;;;21.37;58.23;97934.08;105888;1257;72630;-45
2023/11/09 03:21:17;;;;;;;2.40;2.20;;;;;;;21.37;58.29;97931.34;105777;1256;60434;-48
2023/11/09 03:23:44;;;;;;;2.60;2.20;;;;;;;21.37;58.27;97931.95;105617;1256;60542;-48
2023/11/09 03:26:11;;;;;;;2.30;1.90;;;;;;;21.37;58.38;97930.33;105740;1256;72560;-48
2023/11/09 03:28:39;;;;;;;2.50;1.70;;;;;;;21.36;58.23;97929.14;105879;1257;65789;-45
2023/11/09 03:31:07;;;;;;;3.30;2.00;;;;;;;21.36;58.31;97929.30;105919;1256;72636;-45
2023/11/09 03:33:35;;;;;;;2.40;1.80;;;;;;;21.36;58.28;97927.20;105857;1257;60498;-48
2023/11/09 03:36:02;;;;;;;2.60;1.90;;;;;;;21.36;58.18;97931.17;105658;1255;60434;-48
2023/11/09 03:38:29;;;;;;;1.90;1.60;;;;;;;21.36;58.21;97929.45;105745;1256;73757;-46
2023/11/09 03:40:57;;;;;;;2.00;1.50;;;;;;;21.35;58.27;97932.33;105853;1256;65807;-46
2023/11/09 03:43:24;;;;;;;2.30;2.00;;;;;;;21.35;58.34;97938.55;105632;1254;72299;-46
2023/11/09 03:45:52;;;;;;;2.10;1.90;;;;;;;21.35;58.11;97940.02;105685;1257;60418;-46
2023/11/09 03:48:20;;;;;;;2.20;2.00;;;;;;;21.35;58.20;97938.33;105689;1252;60433;-46
2023/11/09 03:50:49;;;;;;;2.10;1.80;;;;;;;21.35;58.10;97938.94;105963;1256;73619;-46
2023/11/09 03:53:16;;;;;;;2.20;1.90;;;;;;;21.36;58.08;97939.34;105759;1257;65969;-47
2023/11/09 03:55:43;;;;;;;2.30;1.80;;;;;;;21.35;58.14;97934.81;105719;1265;72398;-46
2023/11/09 03:58:11;;;;;;;2.20;2.00;;;;;;;21.35;58.07;97931.16;105749;1256;60437;-46
2023/11/09 04:00:38;;;;;;;2.00;1.80;;;;;;;21.35;58.21;97935.74;105624;1253;60423;-46
2023/11/09 04:03:06;;;;;;;2.30;2.10;;;;;;;21.34;58.21;97932.16;105656;1255;73727;-47
2023/11/09 04:05:34;;;;;;;2.30;1.90;;;;;;;21.35;58.30;97934.65;106114;1251;66165;-47
2023/11/09 04:08:01;;;;;;;2.30;2.00;;;;;;;21.34;58.18;97936.90;105960;1256;72586;-46
2023/11/09 04:10:28;;;;;;;2.50;2.10;;;;;;;21.34;57.98;97938.84;106306;1264;60437;-46
2023/11/09 04:12:56;;;;;;;2.30;1.90;;;;;;;21.35;58.19;97940.72;105848;1254;60380;-46
2023/11/09 04:15:23;;;;;;;1.70;1.60;;;;;;;21.34;58.10;97936.90;106406;1254;73751;-47
2023/11/09 04:17:50;;;;;;;2.10;1.90;;;;;;;21.34;58.01;97937.05;105756;1257;66238;-46
2023/11/09 04:20:18;;;;;;;1.90;1.70;;;;;;;21.34;58.12;97939.63;105825;1257;72442;-47
2023/11/09 04:22:46;;;;;;;2.50;2.00;;;;;;;21.34;58.10;97940.31;105945;1264;60433;-46
2023/11/09 04:25:13;;;;;;;2.60;1.90;;;;;;;21.34;58.24;97947.71;105729;1257;60550;-46
2023/11/09 04:27:42;;;;;;;2.20;2.00;;;;;;;21.34;58.08;97947.55;105673;1256;73793;-46
2023/11/09 04:30:14;;;;;;;2.00;1.70;;;;;;;21.34;58.08;97948.80;105598;1256;65125;-46
2023/11/09 04:32:42;;;;;;;2.00;1.70;;;;;;;21.34;58.06;97950.51;105814;1256;72771;-46
2023/11/09 04:35:10;;;;;;;2.40;2.20;;;;;;;21.34;58.14;97952.92;105757;1264;60539;-47
2023/11/09 04:37:41;;;;;;;2.80;1.90;;;;;;;21.35;58.14;97956.83;105670;1251;60512;-47
2023/11/09 04:40:15;;;;;;;2.10;1.90;;;;;;;21.35;58.10;97955.42;105862;1252;73780;-47
2023/11/09 04:42:46;;;;;;;2.30;2.00;;;;;;;21.34;58.18;97958.15;105973;1257;65121;-46
2023/11/09 04:45:15;;;;;;;2.00;1.80;;;;;;;21.34;58.05;97956.91;105930;1256;72819;-47
2023/11/09 04:47:45;;;;;;;4.30;1.90;;;;;;;21.34;58.04;97959.00;105931;1256;60437;-47
2023/11/09 04:50:17;;;;;;;2.70;2.00;;;;;;;21.34;58.16;97970.28;105815;1251;60515;-46
2023/11/09 04:52:51;;;;;;;2.20;1.80;;;;;;;21.34;58.07;97972.70;105720;1256;73741;-46
2023/11/09 04:55:31;;;;;;;2.00;1.80;;;;;;;21.34;58.06;97976.13;106238;1255;66354;-47
2023/11/09 05:09:21;;;;;;;1.70;1.60;;;;;;;21.33;57.98;97976.19;109162;1251;65323;-45
2023/11/09 05:11:48;;;;;;;2.10;1.80;;;;;;;21.33;57.89;97975.23;109399;1251;71185;-46
2023/11/09 05:14:16;;;;;;;1.90;1.60;;;;;;;21.34;57.94;97976.91;108750;1255;60543;-48
2023/11/09 05:16:43;;;;;;;2.80;2.00;;;;;;;21.35;57.97;97977.77;105872;1251;60395;-47
2023/11/09 05:19:12;;;;;;;2.00;1.80;;;;;;;21.36;57.95;97972.89;105924;1256;73120;-46
2023/11/09 05:21:40;;;;;;;2.30;1.90;;;;;;;21.36;57.94;97984.95;105975;1260;66222;-46
2023/11/09 05:24:07;;;;;;;2.00;1.80;;;;;;;21.37;57.99;97992.98;105897;1251;72729;-48
2023/11/09 05:26:36;;;;;;;2.10;1.90;;;;;;;21.37;57.72;97997.20;105888;1257;60508;-47
2023/11/09 05:29:05;;;;;;;2.10;1.70;;;;;;;21.37;57.93;97998.43;105711;1251;60418;-47
2023/11/09 05:31:35;;;;;;;2.10;1.90;;;;;;;21.36;57.87;97996.32;105988;1256;73757;-47
2023/11/09 05:34:04;;;;;;;2.20;1.90;;;;;;;21.37;57.92;98000.84;105911;1257;66030;-47
2023/11/09 05:36:34;;;;;;;2.00;1.60;;;;;;;21.36;57.89;98003.79;105657;1256;72601;-47
2023/11/09 05:39:05;;;;;;;2.00;1.70;;;;;;;21.36;57.79;98003.23;105646;1256;60586;-46
2023/11/09 05:41:33;;;;;;;2.10;1.80;;;;;;;21.36;57.77;98009.92;105686;1256;61155;-48
2023/11/09 05:44:01;;;;;;;3.00;1.60;;;;;;;21.36;57.85;98010.41;105717;1256;73634;-47
2023/11/09 05:46:31;;;;;;;1.70;1.50;;;;;;;21.36;57.93;98010.88;105647;1267;67029;-47
2023/11/09 05:48:58;;;;;;;2.30;1.70;;;;;;;21.36;57.88;98015.08;105771;1257;72954;-47
2023/11/09 05:51:26;;;;;;;1.90;1.70;;;;;;;21.36;57.85;98014.38;105818;1253;60641;-45
2023/11/09 05:53:55;;;;;;;2.10;1.80;;;;;;;21.36;57.71;98015.55;105843;1251;60517;-48
2023/11/09 05:56:24;;;;;;;2.20;1.80;;;;;;;21.36;57.75;98023.09;105902;1256;74390;-48
2023/11/09 05:58:53;;;;;;;2.00;1.80;;;;;;;21.35;57.95;98018.80;105830;1251;67125;-46
2023/11/09 06:01:20;;;;;;;2.60;1.90;;;;;;;21.35;57.74;98019.11;105814;1251;72623;-47
2023/11/09 06:03:49;;;;;;;2.50;1.80;;;;;;;21.36;57.79;98021.06;105856;1258;60488;-47
2023/11/09 06:06:16;;;;;;;1.80;1.70;;;;;;;21.36;57.80;98025.89;105768;1256;60431;-46
2023/11/09 06:08:44;;;;;;;2.10;1.90;;;;;;;21.36;57.66;98027.14;105816;1251;73598;-46
2023/11/09 06:11:13;;;;;;;2.20;1.90;;;;;;;21.36;57.71;98025.73;105908;1256;65812;-46
2023/11/09 06:13:41;;;;;;;2.30;2.00;;;;;;;21.36;57.79;98028.15;105862;1257;72672;-44
2023/11/09 06:16:09;;;;;;;2.70;2.20;;;;;;;21.37;57.55;98036.35;105792;1257;60537;-38
2023/11/09 06:18:37;;;;;;;3.50;2.30;;;;;;;21.35;57.40;98037.48;105631;1260;60443;-40
2023/11/09 06:21:05;;;;;;;3.70;2.70;;;;;;;21.34;57.41;98042.59;105737;1251;72522;-41
2023/11/09 06:23:32;;;;;;;3.50;2.70;;;;;;;21.31;57.66;98044.96;105630;1258;66778;-38
2023/11/09 06:26:00;;;;;;;2.90;2.50;;;;;;;21.29;57.93;98051.36;105446;1257;73857;-38
2023/11/09 06:28:28;;;;;;;3.90;2.30;;;;;;;21.27;58.06;98055.14;105800;1255;60555;-38
2023/11/09 06:30:55;;;;;;;4.90;2.80;;;;;;;21.28;58.07;98058.73;105778;1254;60424;-37
2023/11/09 06:33:23;;;;;;;3.20;2.90;;;;;;;21.27;57.95;98062.70;105631;1251;73506;-39
2023/11/09 06:35:51;;;;;;;3.20;2.40;;;;;;;21.27;58.20;98064.23;105717;1257;66002;-41
2023/11/09 06:38:20;;;;;;;3.30;2.60;;;;;;;21.26;58.18;98062.28;105475;1259;72748;-40
2023/11/09 06:40:48;;;;;;;4.60;2.50;;;;;;;21.26;58.08;98063.91;105718;1256;60402;-40
2023/11/09 06:43:16;;;;;;;3.20;2.40;;;;;;;21.26;58.06;98063.59;105723;1251;60438;-39
2023/11/09 06:45:45;;;;;;;3.10;2.20;;;;;;;21.25;58.03;98065.66;105694;1251;73550;-39
2023/11/09 06:48:13;;;;;;;2.90;2.60;;;;;;;21.24;58.11;98066.69;105442;1260;67260;-39
2023/11/09 06:50:40;;;;;;;3.40;2.60;;;;;;;21.23;58.05;98069.61;105788;1251;73854;-39
2023/11/09 06:53:08;;;;;;;3.70;2.60;;;;;;;21.22;57.96;98076.82;105674;1256;60364;-40
2023/11/09 06:55:36;;;;;;;3.10;2.50;;;;;;;21.20;57.83;98082.08;105965;1251;60460;-39
2023/11/09 06:58:03;;;;;;;5.20;3.00;;;;;;;21.19;57.79;98082.84;105939;1257;73594;-41
2023/11/09 07:00:32;;;;;;;4.30;3.00;;;;;;;21.19;57.87;98084.30;106038;1257;66065;-41
2023/11/09 07:03:01;;;;;;;3.30;2.20;;;;;;;21.18;57.99;98084.21;105572;1267;72343;-40
2023/11/09 07:05:29;;;;;;;4.10;2.40;;;;;;;21.17;58.01;98083.88;106129;1257;61179;-39
2023/11/09 07:07:57;;;;;;;5.90;2.70;;;;;;;21.16;58.06;98085.55;105905;1255;60431;-37
2023/11/09 07:10:25;;;;;;;91.20;5.70;;;;;;;21.16;58.23;98087.57;106211;1252;73821;-39
2023/11/09 07:12:52;;;;;;;132.60;8.00;;;;;;;21.16;58.27;98089.20;105710;1256;65859;-42
2023/11/09 07:15:20;;;;;;;123.70;8.30;;;;;;;21.16;58.28;98092.32;107723;1255;72593;-42
2023/11/09 07:17:47;;;;;;;162.50;9.40;;;;;;;21.14;58.30;98095.34;105630;1257;60527;-44
2023/11/09 07:20:15;;;;;;;129.40;8.70;;;;;;;21.13;58.24;98100.36;105797;1251;60421;-44
2023/11/09 07:22:43;;;;;;;123.60;8.80;;;;;;;21.13;58.52;98103.16;105745;1257;73625;-44
2023/11/09 07:25:10;;;;;;;110.70;8.40;;;;;;;21.13;58.80;98100.45;105607;1257;66097;-44
2023/11/09 07:27:41;;;;;;;115.50;8.30;;;;;;;21.14;59.01;98104.20;105507;1251;72567;-45
2023/11/09 07:30:11;;;;;;;87.20;7.20;;;;;;;21.13;59.54;98107.84;105392;1251;60368;-44
2023/11/09 07:32:39;;;;;;;74.80;6.60;;;;;;;21.13;60.46;98109.32;106413;1252;60923;-45
2023/11/09 07:35:09;;;;;;;74.50;7.80;;;;;;;21.13;61.04;98112.05;106549;1254;73558;-43
2023/11/09 07:37:37;;;;;;;54.40;7.30;;;;;;;21.12;61.48;98116.05;105533;1254;66227;-46
2023/11/09 07:40:09;;;;;;;53.00;5.90;;;;;;;21.10;61.59;98111.83;105792;1256;72768;-45
2023/11/09 07:42:39;;;;;;;53.40;5.90;;;;;;;21.11;61.99;98117.20;107094;1251;60507;-45
2023/11/09 07:45:10;;;;;;;47.80;5.70;;;;;;;21.12;62.07;98117.53;105906;1251;60533;-46
2023/11/09 07:47:37;;;;;;;44.90;6.00;;;;;;;21.12;62.31;98118.33;105763;1251;73859;-44
2023/11/09 07:50:09;;;;;;;31.40;4.80;;;;;;;21.13;62.55;98117.31;106925;1251;65814;-46
2023/11/09 07:52:37;;;;;;;45.40;6.00;;;;;;;21.14;62.68;98116.58;106043;1257;72576;-46
2023/11/09 07:55:05;;;;;;;34.20;5.00;;;;;;;21.15;63.20;98118.30;106718;1251;60498;-47
2023/11/09 07:57:37;;;;;;;24.80;4.50;;;;;;;21.15;63.61;98118.91;108087;1251;59191;-47
2023/11/09 08:00:10;;;;;;;28.50;4.10;;;;;;;21.15;63.97;98115.95;106130;1254;72491;-44
2023/11/09 08:02:39;;;;;;;25.80;5.20;;;;;;;21.16;64.32;98116.44;105967;1254;66709;-44
2023/11/09 08:05:13;;;;;;;27.20;4.00;;;;;;;21.17;64.76;98113.13;106060;1253;72682;-46
2023/11/09 08:07:42;;;;;;;26.40;4.80;;;;;;;21.20;65.15;98115.08;105754;1251;61950;-40
2023/11/09 08:10:10;;;;;;;24.80;3.90;;;;;;;21.24;65.57;98116.25;105874;1254;60434;-45
2023/11/09 08:12:40;;;;;;;23.80;4.10;;;;;;;21.29;65.68;98116.04;105888;1256;73638;-48
2023/11/09 08:15:13;;;;;;;19.70;4.20;;;;;;;21.36;65.66;98117.44;105643;1257;66198;-44
2023/11/09 08:17:41;;;;;;;20.10;3.40;;;;;;;21.42;65.78;98120.23;105758;1251;72637;-42
2023/11/09 08:20:13;;;;;;;19.40;4.00;;;;;;;21.49;65.71;98116.70;105719;1256;60562;-46
2023/11/09 08:22:46;;;;;;;19.00;4.40;;;;;;;21.55;65.75;98114.80;105648;1257;60395;-46
2023/11/09 08:25:20;;;;;;;19.20;4.20;;;;;;;21.59;65.69;98119.10;105781;1254;73144;-44
2023/11/09 08:27:47;;;;;;;18.90;3.40;;;;;;;21.63;65.70;98113.11;105437;1255;66970;-44
2023/11/09 08:30:15;;;;;;;15.70;3.70;;;;;;;21.67;65.64;98113.00;105462;1251;72618;-45
2023/11/09 08:32:47;;;;;;;11.80;3.50;;;;;;;21.69;65.85;98112.98;107103;1251;60492;-42
2023/11/09 08:35:15;;;;;;;13.00;3.00;;;;;;;21.72;65.73;98115.38;106562;1254;60572;-43
2023/11/09 08:37:43;;;;;;;8.90;3.10;;;;;;;21.73;65.70;98112.98;105545;1254;73795;-41
2023/11/09 08:40:17;;;;;;;11.70;4.00;;;;;;;21.74;65.72;98114.02;105644;1256;65811;-40
2023/11/09 08:42:49;;;;;;;12.50;3.00;;;;;;;21.77;65.73;98115.39;107541;1253;73082;-44
2023/11/09 08:45:17;;;;;;;10.80;3.20;;;;;;;21.78;65.81;98120.33;106410;1264;60543;-43
2023/11/09 08:47:45;;;;;;;13.30;2.90;;;;;;;21.80;65.77;98121.06;105802;1254;60405;-45
2023/11/09 08:50:13;;;;;;;11.70;3.10;;;;;;;21.82;65.62;98119.84;105619;1254;73318;-44
2023/11/09 08:52:41;;;;;;;10.10;3.10;;;;;;;21.83;65.70;98122.84;105805;1257;65882;-44
2023/11/09 08:55:09;;;;;;;9.60;2.90;;;;;;;21.85;65.75;98127.01;105797;1254;73706;-43
2023/11/09 08:57:38;;;;;;;6.60;2.50;;;;;;;21.85;65.74;98129.77;105775;1257;60670;-44
2023/11/09 09:00:16;;;;;;;9.40;2.70;;;;;;;21.87;65.96;98133.23;106345;1251;60579;-44
2023/11/09 09:02:51;;;;;;;12.80;3.10;;;;;;;21.90;65.83;98133.27;105431;1256;258946;-43
2023/11/09 09:05:23;;;;;;;8.10;3.00;;;;;;;21.93;65.83;98132.63;106888;1251;67056;-41
2023/11/09 09:07:56;;;;;;;8.00;2.90;;;;;;;21.96;65.52;98131.13;105646;1252;72817;-41
2023/11/09 09:10:28;;;;;;;7.70;3.00;;;;;;;21.99;65.37;98129.70;106023;1257;60546;-43
2023/11/09 09:13:00;;;;;;;9.90;2.70;;;;;;;22.01;65.34;98125.39;105739;1252;60452;-44
2023/11/09 09:15:29;;;;;;;10.00;3.10;;;;;;;22.04;65.16;98124.73;105678;1251;72356;-43
2023/11/09 09:18:02;;;;;;;6.60;2.70;;;;;;;22.05;65.29;98119.38;105845;1254;67229;-42
2023/11/09 09:20:43;;;;;;;12.80;2.80;;;;;;;22.05;65.20;98118.67;105422;1255;72689;-43
2023/11/09 09:23:13;;;;;;;7.80;2.60;;;;;;;22.06;65.09;98114.02;105683;1251;61604;-42
2023/11/09 09:25:41;;;;;;;6.40;2.70;;;;;;;22.06;65.10;98116.28;105579;1250;60616;-40
2023/11/09 09:28:09;;;;;;;6.90;2.80;;;;;;;22.07;65.22;98120.73;105593;1254;73804;-40
2023/11/09 09:30:37;;;;;;;9.90;2.90;;;;;;;22.07;65.35;98124.48;106150;1257;67107;-43
2023/11/09 09:33:07;;;;;;;10.50;2.70;;;;;;;22.07;65.32;98124.88;105477;1256;74524;-42
2023/11/09 09:35:35;;;;;;;6.40;2.70;;;;;;;22.07;65.40;98127.22;105826;1251;60555;-43
2023/11/09 09:38:11;;;;;;;7.20;2.50;;;;;;;22.06;65.24;98124.17;105354;1258;60544;-45
2023/11/09 09:40:39;;;;;;;7.70;2.50;;;;;;;22.07;65.36;98118.11;105412;1257;74374;-46
2023/11/09 09:43:18;;;;;;;9.70;2.60;;;;;;;22.07;65.17;98119.42;105347;1254;65751;-41
2023/11/09 09:45:46;;;;;;;9.00;3.30;;;;;;;22.07;65.18;98115.05;106394;1254;73666;-46
2023/11/09 09:48:15;;;;;;;7.70;2.80;;;;;;;22.07;65.34;98113.02;108168;1256;60551;-49
2023/11/09 09:50:43;;;;;;;7.50;2.80;;;;;;;22.09;65.33;98105.73;109357;1253;61529;-45
2023/11/09 09:53:11;;;;;;;7.40;2.70;;;;;;;22.10;65.43;98099.45;109448;1251;73492;-45
2023/11/09 09:55:40;;;;;;;10.90;3.10;;;;;;;22.12;65.57;98098.23;109300;1251;67085;-45
2023/11/09 09:58:11;;;;;;;7.40;2.80;;;;;;;22.14;65.36;98101.63;109386;1253;72730;-46
2023/11/09 10:00:38;;;;;;;7.80;2.60;;;;;;;22.15;65.26;98101.79;109429;1251;60835;-45
2023/11/09 10:03:06;;;;;;;8.10;2.50;;;;;;;22.16;65.03;98098.85;106917;1253;60418;-43
2023/11/09 10:05:36;;;;;;;6.10;2.70;;;;;;;22.16;64.96;98101.11;107497;1253;72701;-44
2023/11/09 10:08:14;;;;;;;7.00;2.40;;;;;;;22.17;65.12;98098.61;107611;1254;64821;-44
2023/11/09 10:10:44;;;;;;;7.80;2.60;;;;;;;22.17;65.17;98106.66;105755;1256;72166;-46
2023/11/09 10:13:18;;;;;;;;;;;;;;;22.18;65.16;98110.35;105663;1253;60438;-42
2023/11/09 10:15:56;;;;;;;8.20;2.40;;;;;;;22.17;65.11;98114.06;105748;1251;60949;-44
2023/11/09 10:18:27;;;;;;;5.70;2.60;;;;;;;22.16;64.87;98111.79;105627;1260;74777;-43
2023/11/09 10:21:01;;;;;;;7.60;2.40;;;;;;;22.15;65.04;98109.75;105816;1254;65170;-44
2023/11/09 10:23:29;;;;;;;10.70;2.60;;;;;;;22.15;65.32;98110.23;105000;1257;71904;-39
2023/11/09 10:25:57;;;;;;;9.30;2.40;;;;;;;22.16;65.47;98110.77;105188;1255;63194;-41
2023/11/09 10:28:33;;;;;;;4.50;2.10;;;;;;;22.18;65.79;98106.97;107114;1251;60482;-42
2023/11/09 10:31:01;;;;;;;7.10;2.30;;;;;;;22.19;65.89;98107.63;105648;1254;74152;-41
2023/11/09 10:33:30;;;;;;;10.70;2.50;;;;;;;22.22;66.15;98106.45;105427;1260;68497;-41
2023/11/09 10:36:04;;;;;;;7.00;2.60;;;;;;;22.24;65.64;98106.48;105559;1256;72492;-41
2023/11/09 10:38:36;;;;;;;9.90;2.50;;;;;;;22.28;65.57;98105.37;105146;1254;62119;-40
2023/11/09 10:41:05;;;;;;;10.30;2.60;;;;;;;22.31;65.40;98101.99;106636;1254;60427;-41
2023/11/09 10:43:55;;;;;;;7.10;2.70;;;;;;;22.34;65.10;98100.55;105721;1252;73805;-41
2023/11/09 10:46:22;;;;;;;6.10;2.70;;;;;;;22.35;64.84;98099.81;105866;1251;66382;-42
2023/11/09 10:48:50;;;;;;;5.40;2.40;;;;;;;22.36;64.90;98104.20;107774;1251;74608;-42
2023/11/09 10:51:19;;;;;;;4.20;2.40;;;;;;;22.37;64.84;98100.39;107669;1251;60510;-41
2023/11/09 10:53:48;;;;;;;7.00;2.60;;;;;;;22.37;64.90;98101.64;106203;1256;60398;-42
2023/11/09 10:56:16;;;;;;;6.80;2.40;;;;;;;22.38;64.81;98098.98;105756;1254;73983;-42
2023/11/09 10:58:44;;;;;;;5.90;2.40;;;;;;;22.38;65.01;98100.31;105872;1251;66466;-41
2023/11/09 11:01:22;;;;;;;5.00;2.20;;;;;;;22.37;64.83;98101.80;105187;1251;72627;-42
2023/11/09 11:03:52;;;;;;;5.20;2.40;;;;;;;22.37;65.02;98101.48;105577;1258;60425;-38
2023/11/09 11:06:23;;;;;;;5.80;2.40;;;;;;;22.36;65.03;98104.81;105830;1253;60555;-42
2023/11/09 11:08:54;;;;;;;4.30;2.20;;;;;;;22.35;64.94;98105.73;105716;1251;74136;-41
2023/11/09 11:11:26;;;;;;;3.80;1.90;;;;;;;22.35;65.16;98105.50;105829;1250;65356;-41
2023/11/09 11:13:57;;;;;;;5.10;2.10;;;;;;;22.34;65.11;98105.17;105831;1251;73162;-41
2023/11/09 11:16:44;;;;;;;3.60;2.00;;;;;;;22.34;65.17;98102.89;105730;1256;60344;-41
2023/11/09 11:19:36;;;;;;;4.40;2.10;;;;;;;22.33;65.23;98108.58;107027;1253;60319;-41
2023/11/09 11:22:35;;;;;;;7.00;2.60;;;;;;;22.33;65.19;98108.73;105655;1252;73605;-45
2023/11/09 11:25:28;;;;;;;8.10;2.40;;;;;;;22.31;65.31;98107.23;106367;1256;66072;-42
2023/11/09 11:28:00;;;;;;;5.80;2.40;;;;;;;22.32;65.69;98108.26;108329;1255;72833;-46
2023/11/09 11:30:32;;;;;;;8.30;2.10;;;;;;;22.33;66.10;98105.15;106094;1257;62867;-45
2023/11/09 11:33:04;;;;;;;9.60;2.00;;;;;;;22.35;66.12;98109.32;105701;1256;61217;-44
2023/11/09 11:35:40;;;;;;;4.70;2.50;;;;;;;22.38;66.11;98106.34;106158;1257;74857;-42
2023/11/09 11:38:16;;;;;;;;;;;;;;;22.42;66.06;98114.59;105654;1254;67426;-50
2023/11/09 11:40:45;;;;;;;5.00;2.20;;;;;;;22.47;66.06;98106.64;105748;1251;73737;-42
2023/11/09 11:43:14;;;;;;;5.00;2.10;;;;;;;22.50;65.69;98108.10;105804;1252;61389;-43
2023/11/09 11:45:43;;;;;;;4.00;2.10;;;;;;;22.55;65.64;98108.01;105661;1251;60418;-41